METAR Reports for Maryland

 

KGAI - Gaithersburg, Maryland, USA
Distance from station: NNE 28mi, 44km
Updated: Thu, 21-Sep-2017 6:56pm EDT
Clear
Clear
 Wind from calm
Wind: Calm
Temperature: 73°F , 23°C
Dew Point: 66°F , 19°C
Humidity: 78%
Barometer: 30.05 inHg , 1017.6 hPa
Clouds: Clear
Visibility: 10 miles , 16 km
2017/09/21 22:56 KGAI 212256Z AUTO 00000KT 10SM CLR 23/19 A3005 RMK AO2 SLP198 T02330189
KCGS - College Park, Maryland, USA
Distance from station: ENE 29mi, 47km
Updated: Thu, 21-Sep-2017 6:46pm EDT
Clear
Clear
 Wind from NNW
Wind: NNW 3 mph , 6 km/h
Temperature: 79°F , 26°C
Dew Point: 64°F , 18°C
Humidity: 61%
Barometer: 30.01 inHg , 1016.3 hPa
Clouds: Clear
Visibility: 10 miles , 16 km
2017/09/21 22:46 KCGS 212246Z AUTO 33003KT 10SM CLR 26/18 A3001 RMK AO1 T02550184
KADW - Andrews Afb, Maryland, USA
Distance from station: E 30mi, 48km
Updated: Thu, 21-Sep-2017 6:58pm EDT
Few Clouds
Few Clouds
 Wind from N
Wind: N 8 mph , 13 km/h
Temperature: 81°F , 27°C
Heat Index: 83°F , 28°C
Dew Point: 64°F , 18°C
Humidity: 58%
Barometer: 30.01 inHg , 1016.3 hPa
Clouds: Few Clouds
Visibility: 10 miles , 16 km
Cloud details: Few Clouds 5500 ft
2017/09/21 22:58 KADW 212258Z AUTO 35007KT 10SM FEW055 27/18 A3001 RMK AO2 SLP167 T02660177
 
KFME - Fort Meade, Maryland, USA
Distance from station: ENE 40mi, 64km
Updated: Thu, 21-Sep-2017 6:45pm EDT
Clear
Clear
 Wind from calm
Wind: Calm
Temperature: 73°F , 23°C
Dew Point: 70°F , 21°C
Humidity: 89%
Barometer: 30.04 inHg , 1017.3 hPa
Clouds: Clear
Visibility: 10 miles , 16 km
2017/09/21 22:45 KFME 212245Z AUTO 00000KT 10SM CLR 23/21 A3004 RMK AO1
KFDK - Frederick, Maryland, USA
Distance from station: N 41mi, 67km
Updated: Thu, 21-Sep-2017 6:47pm EDT
Clear
Clear
 Wind from calm
Wind: Calm
Temperature: 81°F , 27°C
Heat Index: 83°F , 28°C
Dew Point: 64°F , 18°C
Humidity: 58%
Barometer: 30.05 inHg , 1017.6 hPa
Clouds: Clear
Visibility: 10 miles , 16 km
2017/09/21 22:47 KFDK 212247Z 00000KT 10SM SKC 27/18 A3005
KBWI - Balto/Wash Intl, Maryland, USA
Distance from station: ENE 46mi, 75km
Updated: Thu, 21-Sep-2017 6:54pm EDT
Mostly cloudy
Mostly cloudy
 Wind from NW
Wind: NW 5 mph , 7 km/h
Temperature: 81°F , 27°C
Heat Index: 83°F , 28°C
Dew Point: 66°F , 19°C
Humidity: 62%
Barometer: 30.01 inHg , 1016.3 hPa
Clouds: Mostly cloudy
Visibility: 10 miles , 16 km
Cloud details: Few Clouds 5500 ft
Partly cloudy 16000 ft
Mostly cloudy 25000 ft
2017/09/21 22:54 KBWI 212254Z 31004KT 10SM FEW055 SCT160 BKN250 27/19 A3001 RMK AO2 SLP159 T02720189
 
KNAK - Annapolis/Naval, Maryland, USA
Distance from station: ENE 52mi, 83km
Updated: Thu, 21-Sep-2017 6:54pm EDT
Clear
Clear
 Wind from calm
Wind: Calm
Temperature: 81°F , 27°C
Heat Index: 85°F , 29°C
Dew Point: 72°F , 22°C
Humidity: 74%
Barometer: 30.00 inHg , 1015.9 hPa
Clouds: Clear
Visibility: 10 miles , 16 km
2017/09/21 22:54 KNAK 212254Z AUTO 00000KT 10SM CLR 27/22 A3000 RMK AO2 SLP162 T02720217
KDMH - Baltimore/Dwntwn, Maryland, USA
Distance from station: NE 54mi, 87km
Updated: Thu, 21-Sep-2017 6:54pm EDT

 
Temperature: 84°F , 29°C
Heat Index: 85°F , 29°C
Dew Point: 63°F , 17°C
Humidity: 48%
Barometer: 30.01 inHg , 1016.3 hPa
2017/09/21 22:54 KDMH 212254Z AUTO 29/17 A3001 RMK AO1 SLP161 T02940172
KRSP - Nsf Thurmont, Maryland, USA
Distance from station: N 58mi, 93km
Updated: Thu, 21-Sep-2017 5:54pm EDT
Clear
Clear
 Wind from N
Wind: N 3 mph , 6 km/h
Temperature: 75°F , 24°C
Dew Point: 63°F , 17°C
Humidity: 65%
Barometer: 30.10 inHg , 1019.3 hPa
Clouds: Clear
Visibility: 10 miles , 16 km
2017/09/21 21:54 KRSP 212154Z AUTO 35003KT 10SM CLR 24/17 A3010 RMK AO2 SLP188 T02390172 $
 
K2W6 - St Marys (duke), Maryland, USA
Distance from station: SE 58mi, 94km
Updated: Thu, 21-Sep-2017 6:57pm EDT
Clear
Clear
 Wind from calm
Wind: Calm
Temperature: 72°F , 22°C
Dew Point: 64°F , 18°C
Humidity: 78%
Barometer: 30.03 inHg , 1016.9 hPa
Clouds: Clear
Visibility: 10 miles , 16 km
2017/09/21 22:57 K2W6 212257Z AUTO 00000KT 10SM CLR 22/18 A3003 RMK AO1
KDMW - Carroll Cnty, Maryland, USA
Distance from station: NNE 58mi, 94km
Updated: Thu, 21-Sep-2017 6:45pm EDT
Clear
Clear
 Wind from calm
Wind: Calm
Temperature: 81°F , 27°C
Heat Index: 83°F , 28°C
Dew Point: 66°F , 19°C
Humidity: 62%
Barometer: 30.05 inHg , 1017.6 hPa
Clouds: Clear
Visibility: 10 miles , 16 km
2017/09/21 22:45 KDMW 212245Z AUTO 00000KT 10SM CLR 27/19 A3005 RMK AO2
KW29 - Stevensville, Maryland, USA
Distance from station: ENE 60mi, 96km
Updated: Thu, 21-Sep-2017 6:40pm EDT
Clear
Clear
 Wind from calm
Wind: Calm
Temperature: 81°F , 27°C
Heat Index: 83°F , 28°C
Dew Point: 64°F , 18°C
Humidity: 58%
Barometer: 30.00 inHg , 1015.9 hPa
Clouds: Clear
Visibility: 10 miles , 16 km
2017/09/21 22:40 KW29 212240Z AUTO 00000KT 10SM CLR 27/18 A3000 RMK AO2
 
KHGR - Hagerstown, Maryland, USA
Distance from station: NNW 63mi, 102km
Updated: Thu, 21-Sep-2017 6:53pm EDT
Clear
Clear
 Wind from NNW
Wind: NNW 5 mph , 7 km/h
Temperature: 81°F , 27°C
Heat Index: 81°F , 27°C
Dew Point: 57°F , 14°C
Humidity: 45%
Barometer: 30.05 inHg , 1017.6 hPa
Clouds: Clear
Visibility: 10 miles , 16 km
2017/09/21 22:53 KHGR 212253Z 34004KT 10SM CLR 27/14 A3005 RMK AO2 SLP179 T02720144
KMTN - Baltimore/Martin, Maryland, USA
Distance from station: ENE 64mi, 103km
Updated: Thu, 21-Sep-2017 6:55pm EDT
Partly cloudy
Partly cloudy
 Wind from calm
Wind: Calm
Temperature: 81°F , 27°C
Heat Index: 84°F , 29°C
Dew Point: 68°F , 20°C
Humidity: 66%
Barometer: 30.02 inHg , 1016.6 hPa
Clouds: Partly cloudy
Visibility: 10 miles , 16 km
Cloud details: Few Clouds 5000 ft
Partly cloudy 15000 ft
Partly cloudy 20000 ft
2017/09/21 22:55 KMTN 212255Z 00000KT 10SM FEW050 SCT150 SCT200 27/20 A3002
KNHK - Patuxent River, Maryland, USA
Distance from station: SE 67mi, 108km
Updated: Thu, 21-Sep-2017 6:52pm EDT
Partly cloudy
Partly cloudy
 Wind from NNE
Wind: NNE 7 mph , 11 km/h
Temperature: 79°F , 26°C
Dew Point: 63°F , 17°C
Humidity: 58%
Barometer: 30.00 inHg , 1015.9 hPa
Clouds: Partly cloudy
Visibility: 10 miles , 16 km
Cloud details: Few Clouds 5000 ft
Few Clouds 15000 ft
Partly cloudy 25000 ft
2017/09/21 22:52 KNHK 212252Z 02006KT 10SM FEW050 FEW150 SCT250 26/17 A3000 RMK AO2 SLP160 T02560172 VISNO RY24 $
 
KNUI - Webster Naval, Maryland, USA
Distance from station: SE 71mi, 114km
Updated: Thu, 21-Sep-2017 6:53pm EDT
Clear
Clear
 Wind from calm
Wind: Calm
Temperature: 75°F , 24°C
Dew Point: 66°F , 19°C
Humidity: 74%
Barometer: 30.00 inHg , 1015.9 hPa
Clouds: Clear
Visibility: 10 miles , 16 km
2017/09/21 22:53 KNUI 212253Z AUTO 00000KT 10SM CLR 24/19 A3000 RMK AO2 SLP158 T02390189
KESN - Easton/Newnam, Maryland, USA
Distance from station: E 73mi, 117km
Updated: Thu, 21-Sep-2017 6:45pm EDT
Partly cloudy
Partly cloudy
 Wind from calm
Wind: Calm
Temperature: 81°F , 27°C
Heat Index: 83°F , 28°C
Dew Point: 66°F , 19°C
Humidity: 62%
Barometer: 30.04 inHg , 1017.3 hPa
Clouds: Partly cloudy
Visibility: 10 miles , 16 km
Cloud details: Partly cloudy 8000 ft
2017/09/21 22:45 KESN 212245Z 00000KT 10SM SCT080 27/19 A3004
KCGE - Cambridge-Dorch, Maryland, USA
Distance from station: ESE 77mi, 124km
Updated: Thu, 21-Sep-2017 6:45pm EDT
Clear
Clear
 Wind from calm
Wind: Calm
Temperature: 77°F , 25°C
Dew Point: 68°F , 20°C
Humidity: 74%
Barometer: 30.01 inHg , 1016.3 hPa
Clouds: Clear
Visibility: 10 miles , 16 km
2017/09/21 22:45 KCGE 212245Z AUTO 00000KT 10SM CLR 25/20 A3001 RMK A01
 
KAPG - Aberdeen/Phillip, Maryland, USA
Distance from station: NE 81mi, 130km
Updated: Thu, 21-Sep-2017 5:58pm EDT
Mostly cloudy
Mostly cloudy
 Wind from calm
Wind: Calm
Temperature: 82°F , 28°C
Heat Index: 84°F , 29°C
Dew Point: 64°F , 18°C
Humidity: 55%
Barometer: 30.01 inHg , 1016.3 hPa
Clouds: Mostly cloudy
Visibility: 10 miles , 16 km
Cloud details: Mostly cloudy 15000 ft
2017/09/21 21:58 KAPG 212158Z 00000KT 10SM BKN150 28/18 A3001 RMK AO2A SLP165 T02840184 $
KCBE - Cumberland Reg, Maryland, USA
Distance from station: NW 91mi, 146km
Updated: Thu, 21-Sep-2017 6:46pm EDT
Clear
Clear
 Wind from NE
Wind: NE 5 mph , 7 km/h
Temperature: 82°F , 28°C
Heat Index: 82°F , 28°C
Dew Point: 57°F , 14°C
Humidity: 42%
Barometer: 30.08 inHg , 1018.6 hPa
Clouds: Clear
Visibility: 10 miles , 16 km
2017/09/21 22:46 KCBE 212246Z AUTO 04004KT 10SM CLR 28/14 A3008 RMK AO1
KSBY - Salisbury, Maryland, USA
Distance from station: ESE 109mi, 175km
Updated: Thu, 21-Sep-2017 6:54pm EDT
Clear
Clear
 Wind from SSE
Wind: SSE 6 mph , 9 km/h
Temperature: 75°F , 24°C
Dew Point: 70°F , 21°C
Humidity: 83%
Barometer: 30.01 inHg , 1016.3 hPa
Clouds: Clear
Visibility: 10 miles , 16 km
2017/09/21 22:54 KSBY 212254Z 16005KT 10SM CLR 24/21 A3001 RMK AO2 SLP163 T02390206
 
K2G4 - Garrett Co, Maryland, USA
Distance from station: WNW 115mi, 186km
Updated: Thu, 21-Sep-2017 6:45pm EDT
Clear
Clear
 Wind from calm
Wind: Calm
Temperature: 70°F , 21°C
Dew Point: 55°F , 13°C
Humidity: 60%
Barometer: 30.15 inHg , 1021 hPa
Clouds: Clear
Visibility: 10 miles , 16 km
2017/09/21 22:45 K2G4 212245Z AUTO 00000KT 10SM CLR 21/13 A3015 RMK AO1
KOXB - Ocean City, Maryland, USA
Distance from station: ESE 129mi, 208km
Updated: Thu, 21-Sep-2017 6:53pm EDT
Clear
Clear
 Wind from E
Wind: E 3 mph , 6 km/h
Temperature: 73°F , 23°C
Dew Point: 66°F , 19°C
Humidity: 78%
Barometer: 30.01 inHg , 1016.3 hPa
Clouds: Clear
Visibility: 10 miles , 16 km
2017/09/21 22:53 KOXB 212253Z AUTO 08003KT 10SM CLR 23/19 A3001 RMK AO2 SLP162 T02280189